sensor_id;sensor_type;location;lat;lon;timestamp;temperature;humidity
13976;DHT22;7062;49.792;9.946;2023-02-01T00:01:14;6.10;99.90
13976;DHT22;7062;49.792;9.946;2023-02-01T00:03:40;6.10;99.90
13976;DHT22;7062;49.792;9.946;2023-02-01T00:06:06;6.10;99.90
13976;DHT22;7062;49.792;9.946;2023-02-01T00:08:31;6.00;99.90
13976;DHT22;7062;49.792;9.946;2023-02-01T00:10:59;6.10;99.90
13976;DHT22;7062;49.792;9.946;2023-02-01T00:13:24;6.10;99.90
13976;DHT22;7062;49.792;9.946;2023-02-01T00:15:50;6.00;99.90
13976;DHT22;7062;49.792;9.946;2023-02-01T00:18:15;6.10;99.90
13976;DHT22;7062;49.792;9.946;2023-02-01T00:20:45;6.00;99.90
13976;DHT22;7062;49.792;9.946;2023-02-01T00:23:12;6.10;99.90
13976;DHT22;7062;49.792;9.946;2023-02-01T00:25:37;6.00;99.90
13976;DHT22;7062;49.792;9.946;2023-02-01T00:28:03;6.10;99.90
13976;DHT22;7062;49.792;9.946;2023-02-01T00:30:28;6.10;99.90
13976;DHT22;7062;49.792;9.946;2023-02-01T00:32:54;6.10;99.90
13976;DHT22;7062;49.792;9.946;2023-02-01T00:35:20;6.10;99.90
13976;DHT22;7062;49.792;9.946;2023-02-01T00:37:45;6.10;99.90
13976;DHT22;7062;49.792;9.946;2023-02-01T00:40:11;6.10;99.90
13976;DHT22;7062;49.792;9.946;2023-02-01T00:42:37;6.10;99.90
13976;DHT22;7062;49.792;9.946;2023-02-01T00:45:02;6.00;99.90
13976;DHT22;7062;49.792;9.946;2023-02-01T00:47:28;6.10;99.90
13976;DHT22;7062;49.792;9.946;2023-02-01T00:49:55;6.10;99.90
13976;DHT22;7062;49.792;9.946;2023-02-01T00:52:21;6.10;99.90
13976;DHT22;7062;49.792;9.946;2023-02-01T00:54:47;6.20;99.90
13976;DHT22;7062;49.792;9.946;2023-02-01T00:57:12;6.10;99.90
13976;DHT22;7062;49.792;9.946;2023-02-01T00:59:38;6.20;99.90
13976;DHT22;7062;49.792;9.946;2023-02-01T01:02:03;6.20;99.90
13976;DHT22;7062;49.792;9.946;2023-02-01T01:04:29;6.20;99.90
13976;DHT22;7062;49.792;9.946;2023-02-01T01:06:54;6.20;99.90
13976;DHT22;7062;49.792;9.946;2023-02-01T01:09:20;6.20;99.90
13976;DHT22;7062;49.792;9.946;2023-02-01T01:11:45;6.20;99.90
13976;DHT22;7062;49.792;9.946;2023-02-01T01:14:11;6.20;99.90
13976;DHT22;7062;49.792;9.946;2023-02-01T01:16:37;6.20;99.90
13976;DHT22;7062;49.792;9.946;2023-02-01T01:19:03;6.30;99.90
13976;DHT22;7062;49.792;9.946;2023-02-01T01:21:29;6.20;99.90
13976;DHT22;7062;49.792;9.946;2023-02-01T01:23:55;6.30;99.90
13976;DHT22;7062;49.792;9.946;2023-02-01T01:26:23;6.30;99.90
13976;DHT22;7062;49.792;9.946;2023-02-01T01:28:49;6.40;99.90
13976;DHT22;7062;49.792;9.946;2023-02-01T01:31:17;6.40;99.90
13976;DHT22;7062;49.792;9.946;2023-02-01T01:33:42;6.40;99.90
13976;DHT22;7062;49.792;9.946;2023-02-01T01:36:12;6.30;99.90
13976;DHT22;7062;49.792;9.946;2023-02-01T01:38:41;6.30;99.90
13976;DHT22;7062;49.792;9.946;2023-02-01T01:41:08;6.40;99.90
13976;DHT22;7062;49.792;9.946;2023-02-01T01:46:19;6.40;99.90
13976;DHT22;7062;49.792;9.946;2023-02-01T01:48:49;6.30;99.90
13976;DHT22;7062;49.792;9.946;2023-02-01T01:51:18;6.40;99.90
13976;DHT22;7062;49.792;9.946;2023-02-01T01:53:49;6.30;99.90
13976;DHT22;7062;49.792;9.946;2023-02-01T01:56:17;6.30;99.90
13976;DHT22;7062;49.792;9.946;2023-02-01T01:58:43;6.40;99.90
13976;DHT22;7062;49.792;9.946;2023-02-01T02:01:08;6.40;99.90
13976;DHT22;7062;49.792;9.946;2023-02-01T02:03:44;6.40;99.90
13976;DHT22;7062;49.792;9.946;2023-02-01T02:06:30;6.40;99.90
13976;DHT22;7062;49.792;9.946;2023-02-01T02:08:57;6.30;99.90
13976;DHT22;7062;49.792;9.946;2023-02-01T02:11:22;6.30;99.90
13976;DHT22;7062;49.792;9.946;2023-02-01T02:13:52;6.30;99.90
13976;DHT22;7062;49.792;9.946;2023-02-01T02:22:43;6.20;99.90
13976;DHT22;7062;49.792;9.946;2023-02-01T02:41:32;6.30;99.90
13976;DHT22;7062;49.792;9.946;2023-02-01T02:44:27;6.30;99.90
13976;DHT22;7062;49.792;9.946;2023-02-01T02:47:33;6.30;99.90
13976;DHT22;7062;49.792;9.946;2023-02-01T02:52:57;6.20;99.90
13976;DHT22;7062;49.792;9.946;2023-02-01T02:55:44;6.30;99.90
13976;DHT22;7062;49.792;9.946;2023-02-01T02:58:11;6.20;99.90
13976;DHT22;7062;49.792;9.946;2023-02-01T03:00:56;6.20;99.90
13976;DHT22;7062;49.792;9.946;2023-02-01T03:03:41;6.20;99.90
13976;DHT22;7062;49.792;9.946;2023-02-01T03:06:26;6.10;99.90
13976;DHT22;7062;49.792;9.946;2023-02-01T03:08:54;6.10;99.90
13976;DHT22;7062;49.792;9.946;2023-02-01T03:11:23;6.20;99.90
13976;DHT22;7062;49.792;9.946;2023-02-01T03:14:10;6.20;99.90
13976;DHT22;7062;49.792;9.946;2023-02-01T03:16:48;6.20;99.90
13976;DHT22;7062;49.792;9.946;2023-02-01T03:19:34;6.10;99.90
13976;DHT22;7062;49.792;9.946;2023-02-01T03:22:10;6.10;99.90
13976;DHT22;7062;49.792;9.946;2023-02-01T03:24:40;6.10;99.90
13976;DHT22;7062;49.792;9.946;2023-02-01T03:29:54;5.90;99.90
13976;DHT22;7062;49.792;9.946;2023-02-01T03:32:20;6.00;99.90
13976;DHT22;7062;49.792;9.946;2023-02-01T03:34:48;6.00;99.90
13976;DHT22;7062;49.792;9.946;2023-02-01T03:37:25;6.00;99.90
13976;DHT22;7062;49.792;9.946;2023-02-01T03:40:00;6.00;99.90
13976;DHT22;7062;49.792;9.946;2023-02-01T03:42:49;6.00;99.90
13976;DHT22;7062;49.792;9.946;2023-02-01T03:45:38;6.00;99.90
13976;DHT22;7062;49.792;9.946;2023-02-01T03:48:09;5.90;99.90
13976;DHT22;7062;49.792;9.946;2023-02-01T03:50:38;5.90;99.90
13976;DHT22;7062;49.792;9.946;2023-02-01T03:53:08;5.90;99.90
13976;DHT22;7062;49.792;9.946;2023-02-01T03:55:36;5.90;99.90
13976;DHT22;7062;49.792;9.946;2023-02-01T03:58:22;5.90;99.90
13976;DHT22;7062;49.792;9.946;2023-02-01T04:00:59;5.90;99.90
13976;DHT22;7062;49.792;9.946;2023-02-01T04:03:26;5.90;99.90
13976;DHT22;7062;49.792;9.946;2023-02-01T04:05:53;5.80;99.90
13976;DHT22;7062;49.792;9.946;2023-02-01T04:08:22;5.80;99.90
13976;DHT22;7062;49.792;9.946;2023-02-01T04:10:48;5.80;99.90
13976;DHT22;7062;49.792;9.946;2023-02-01T04:13:14;5.80;99.90
13976;DHT22;7062;49.792;9.946;2023-02-01T04:15:40;5.80;99.90
13976;DHT22;7062;49.792;9.946;2023-02-01T04:18:05;5.80;99.90
13976;DHT22;7062;49.792;9.946;2023-02-01T04:20:31;5.90;99.90
13976;DHT22;7062;49.792;9.946;2023-02-01T04:22:57;5.90;99.90
13976;DHT22;7062;49.792;9.946;2023-02-01T04:25:23;5.80;99.90
13976;DHT22;7062;49.792;9.946;2023-02-01T04:27:49;5.80;99.90
13976;DHT22;7062;49.792;9.946;2023-02-01T04:30:15;5.70;99.90
13976;DHT22;7062;49.792;9.946;2023-02-01T04:32:40;5.70;99.90
13976;DHT22;7062;49.792;9.946;2023-02-01T04:35:07;5.70;99.90
13976;DHT22;7062;49.792;9.946;2023-02-01T04:37:33;5.70;99.90
13976;DHT22;7062;49.792;9.946;2023-02-01T04:39:58;5.70;99.90
13976;DHT22;7062;49.792;9.946;2023-02-01T04:42:24;5.70;99.90
13976;DHT22;7062;49.792;9.946;2023-02-01T04:44:50;5.80;99.90
13976;DHT22;7062;49.792;9.946;2023-02-01T04:47:15;5.70;99.90
13976;DHT22;7062;49.792;9.946;2023-02-01T04:49:41;5.60;99.90
13976;DHT22;7062;49.792;9.946;2023-02-01T04:52:07;5.60;99.90
13976;DHT22;7062;49.792;9.946;2023-02-01T04:54:33;5.70;99.90
13976;DHT22;7062;49.792;9.946;2023-02-01T04:56:59;5.70;99.90
13976;DHT22;7062;49.792;9.946;2023-02-01T04:59:26;5.60;99.90
13976;DHT22;7062;49.792;9.946;2023-02-01T05:01:51;5.70;99.90
13976;DHT22;7062;49.792;9.946;2023-02-01T05:04:17;5.60;99.90
13976;DHT22;7062;49.792;9.946;2023-02-01T05:06:46;5.60;99.90
13976;DHT22;7062;49.792;9.946;2023-02-01T05:09:11;5.70;99.90
13976;DHT22;7062;49.792;9.946;2023-02-01T05:11:37;5.70;99.90
13976;DHT22;7062;49.792;9.946;2023-02-01T05:14:21;5.60;99.90
13976;DHT22;7062;49.792;9.946;2023-02-01T05:16:47;5.60;99.90
13976;DHT22;7062;49.792;9.946;2023-02-01T05:19:13;5.60;99.90
13976;DHT22;7062;49.792;9.946;2023-02-01T05:21:39;5.50;99.90
13976;DHT22;7062;49.792;9.946;2023-02-01T05:24:04;5.50;99.90
13976;DHT22;7062;49.792;9.946;2023-02-01T05:26:41;5.50;99.90
13976;DHT22;7062;49.792;9.946;2023-02-01T05:29:08;5.50;99.90
13976;DHT22;7062;49.792;9.946;2023-02-01T05:31:34;5.50;99.90
13976;DHT22;7062;49.792;9.946;2023-02-01T05:34:00;5.40;99.90
13976;DHT22;7062;49.792;9.946;2023-02-01T05:36:25;5.40;99.90
13976;DHT22;7062;49.792;9.946;2023-02-01T05:38:51;5.40;99.90
13976;DHT22;7062;49.792;9.946;2023-02-01T05:41:17;5.40;99.90
13976;DHT22;7062;49.792;9.946;2023-02-01T05:43:42;5.40;99.90
13976;DHT22;7062;49.792;9.946;2023-02-01T05:46:08;5.40;99.90
13976;DHT22;7062;49.792;9.946;2023-02-01T05:48:36;5.40;99.90
13976;DHT22;7062;49.792;9.946;2023-02-01T05:51:01;5.40;99.90
13976;DHT22;7062;49.792;9.946;2023-02-01T05:53:27;5.40;99.90
13976;DHT22;7062;49.792;9.946;2023-02-01T05:55:52;5.40;99.90
13976;DHT22;7062;49.792;9.946;2023-02-01T05:58:18;5.40;99.90
13976;DHT22;7062;49.792;9.946;2023-02-01T06:00:44;5.50;99.90
13976;DHT22;7062;49.792;9.946;2023-02-01T06:03:09;5.50;99.90
13976;DHT22;7062;49.792;9.946;2023-02-01T06:05:35;5.50;99.90
13976;DHT22;7062;49.792;9.946;2023-02-01T06:08:02;5.60;99.90
13976;DHT22;7062;49.792;9.946;2023-02-01T06:10:28;5.50;99.90
13976;DHT22;7062;49.792;9.946;2023-02-01T06:12:53;5.50;99.90
13976;DHT22;7062;49.792;9.946;2023-02-01T06:15:19;5.60;99.90
13976;DHT22;7062;49.792;9.946;2023-02-01T06:17:45;5.60;99.90
13976;DHT22;7062;49.792;9.946;2023-02-01T06:20:12;5.60;99.90
13976;DHT22;7062;49.792;9.946;2023-02-01T06:22:39;5.70;99.90
13976;DHT22;7062;49.792;9.946;2023-02-01T06:25:06;5.70;99.90
13976;DHT22;7062;49.792;9.946;2023-02-01T06:27:32;5.70;99.90
13976;DHT22;7062;49.792;9.946;2023-02-01T06:29:58;5.70;99.90
13976;DHT22;7062;49.792;9.946;2023-02-01T06:32:24;5.70;99.90
13976;DHT22;7062;49.792;9.946;2023-02-01T06:34:50;5.70;99.90
13976;DHT22;7062;49.792;9.946;2023-02-01T06:37:18;5.80;99.90
13976;DHT22;7062;49.792;9.946;2023-02-01T06:39:43;5.80;99.90
13976;DHT22;7062;49.792;9.946;2023-02-01T06:42:09;5.80;99.90
13976;DHT22;7062;49.792;9.946;2023-02-01T06:44:35;5.70;99.90
13976;DHT22;7062;49.792;9.946;2023-02-01T06:47:00;5.70;99.90
13976;DHT22;7062;49.792;9.946;2023-02-01T06:49:26;5.70;99.90
13976;DHT22;7062;49.792;9.946;2023-02-01T06:51:51;5.80;99.90
13976;DHT22;7062;49.792;9.946;2023-02-01T06:54:17;5.70;99.90
13976;DHT22;7062;49.792;9.946;2023-02-01T06:56:43;5.80;99.90
13976;DHT22;7062;49.792;9.946;2023-02-01T06:59:09;5.80;99.90
13976;DHT22;7062;49.792;9.946;2023-02-01T07:01:35;5.80;99.90
13976;DHT22;7062;49.792;9.946;2023-02-01T07:04:01;5.90;99.90
13976;DHT22;7062;49.792;9.946;2023-02-01T07:06:26;6.10;99.90
13976;DHT22;7062;49.792;9.946;2023-02-01T07:08:52;5.90;99.90
13976;DHT22;7062;49.792;9.946;2023-02-01T07:11:21;5.80;99.90
13976;DHT22;7062;49.792;9.946;2023-02-01T07:13:47;5.80;99.90
13976;DHT22;7062;49.792;9.946;2023-02-01T07:16:18;5.80;99.90
13976;DHT22;7062;49.792;9.946;2023-02-01T07:18:44;5.80;99.90
13976;DHT22;7062;49.792;9.946;2023-02-01T07:21:10;5.80;99.90
13976;DHT22;7062;49.792;9.946;2023-02-01T07:23:36;5.80;99.90
13976;DHT22;7062;49.792;9.946;2023-02-01T07:26:04;5.80;99.90
13976;DHT22;7062;49.792;9.946;2023-02-01T07:28:32;5.80;99.90
13976;DHT22;7062;49.792;9.946;2023-02-01T07:31:11;5.90;99.90
13976;DHT22;7062;49.792;9.946;2023-02-01T07:33:38;6.00;99.90
13976;DHT22;7062;49.792;9.946;2023-02-01T07:36:06;6.10;99.90
13976;DHT22;7062;49.792;9.946;2023-02-01T07:38:32;6.10;99.90
13976;DHT22;7062;49.792;9.946;2023-02-01T07:41:02;6.20;99.90
13976;DHT22;7062;49.792;9.946;2023-02-01T07:43:29;6.30;99.90
13976;DHT22;7062;49.792;9.946;2023-02-01T07:45:56;6.30;99.90
13976;DHT22;7062;49.792;9.946;2023-02-01T07:48:25;6.30;99.90
13976;DHT22;7062;49.792;9.946;2023-02-01T07:51:08;6.40;99.90
13976;DHT22;7062;49.792;9.946;2023-02-01T07:53:34;6.40;99.90
13976;DHT22;7062;49.792;9.946;2023-02-01T07:56:00;6.40;99.90
13976;DHT22;7062;49.792;9.946;2023-02-01T07:58:27;6.40;99.90
13976;DHT22;7062;49.792;9.946;2023-02-01T08:00:52;6.50;99.90
13976;DHT22;7062;49.792;9.946;2023-02-01T08:03:37;6.50;99.90
13976;DHT22;7062;49.792;9.946;2023-02-01T08:06:03;6.50;99.90
13976;DHT22;7062;49.792;9.946;2023-02-01T08:08:28;6.50;99.90
13976;DHT22;7062;49.792;9.946;2023-02-01T08:10:58;6.50;99.90
13976;DHT22;7062;49.792;9.946;2023-02-01T08:13:24;6.50;99.90
13976;DHT22;7062;49.792;9.946;2023-02-01T08:15:50;6.60;99.90
13976;DHT22;7062;49.792;9.946;2023-02-01T08:18:15;6.60;99.90
13976;DHT22;7062;49.792;9.946;2023-02-01T08:20:43;6.60;99.90
13976;DHT22;7062;49.792;9.946;2023-02-01T08:23:11;6.60;99.90
13976;DHT22;7062;49.792;9.946;2023-02-01T08:25:37;6.70;99.90
13976;DHT22;7062;49.792;9.946;2023-02-01T08:28:04;6.70;99.90
13976;DHT22;7062;49.792;9.946;2023-02-01T08:30:30;6.80;99.90
13976;DHT22;7062;49.792;9.946;2023-02-01T08:32:56;6.70;99.90
13976;DHT22;7062;49.792;9.946;2023-02-01T08:35:22;6.80;99.90
13976;DHT22;7062;49.792;9.946;2023-02-01T08:37:50;6.80;99.90
13976;DHT22;7062;49.792;9.946;2023-02-01T08:40:16;6.90;99.90
13976;DHT22;7062;49.792;9.946;2023-02-01T08:42:42;6.90;99.90
13976;DHT22;7062;49.792;9.946;2023-02-01T08:45:24;7.00;99.90
13976;DHT22;7062;49.792;9.946;2023-02-01T08:47:51;7.10;99.90
13976;DHT22;7062;49.792;9.946;2023-02-01T08:50:17;7.10;99.90
13976;DHT22;7062;49.792;9.946;2023-02-01T08:52:44;7.20;99.90
13976;DHT22;7062;49.792;9.946;2023-02-01T08:55:10;7.30;99.90
13976;DHT22;7062;49.792;9.946;2023-02-01T08:57:36;7.50;99.90
13976;DHT22;7062;49.792;9.946;2023-02-01T09:00:05;7.50;99.90
13976;DHT22;7062;49.792;9.946;2023-02-01T09:02:31;7.30;99.90
13976;DHT22;7062;49.792;9.946;2023-02-01T09:04:57;7.30;99.90
13976;DHT22;7062;49.792;9.946;2023-02-01T09:07:22;7.20;99.90
13976;DHT22;7062;49.792;9.946;2023-02-01T09:09:48;7.30;99.90
13976;DHT22;7062;49.792;9.946;2023-02-01T09:12:14;7.40;99.90
13976;DHT22;7062;49.792;9.946;2023-02-01T09:14:40;7.40;99.90
13976;DHT22;7062;49.792;9.946;2023-02-01T09:17:05;7.30;99.90
13976;DHT22;7062;49.792;9.946;2023-02-01T09:19:32;7.20;99.90
13976;DHT22;7062;49.792;9.946;2023-02-01T09:21:57;7.10;99.90
13976;DHT22;7062;49.792;9.946;2023-02-01T09:24:23;7.00;99.90
13976;DHT22;7062;49.792;9.946;2023-02-01T09:26:49;7.00;99.90
13976;DHT22;7062;49.792;9.946;2023-02-01T09:29:15;7.10;99.90
13976;DHT22;7062;49.792;9.946;2023-02-01T09:31:41;6.90;99.90
13976;DHT22;7062;49.792;9.946;2023-02-01T09:34:07;7.00;99.90
13976;DHT22;7062;49.792;9.946;2023-02-01T09:36:34;7.00;99.90
13976;DHT22;7062;49.792;9.946;2023-02-01T09:39:00;7.00;99.90
13976;DHT22;7062;49.792;9.946;2023-02-01T09:47:18;7.30;99.90
13976;DHT22;7062;49.792;9.946;2023-02-01T09:50:02;7.40;99.90
13976;DHT22;7062;49.792;9.946;2023-02-01T09:55:06;7.40;99.90
13976;DHT22;7062;49.792;9.946;2023-02-01T09:57:49;7.40;99.90
13976;DHT22;7062;49.792;9.946;2023-02-01T10:00:37;7.30;99.90
13976;DHT22;7062;49.792;9.946;2023-02-01T10:03:03;7.30;99.90
13976;DHT22;7062;49.792;9.946;2023-02-01T10:10:46;7.20;99.90
13976;DHT22;7062;49.792;9.946;2023-02-01T10:24:52;7.30;99.90
13976;DHT22;7062;49.792;9.946;2023-02-01T10:27:29;7.30;99.90
13976;DHT22;7062;49.792;9.946;2023-02-01T10:30:01;7.30;99.90
13976;DHT22;7062;49.792;9.946;2023-02-01T10:32:31;7.30;99.90
13976;DHT22;7062;49.792;9.946;2023-02-01T10:34:59;7.30;99.90
13976;DHT22;7062;49.792;9.946;2023-02-01T10:37:31;7.40;99.90
13976;DHT22;7062;49.792;9.946;2023-02-01T10:40:11;7.60;99.90
13976;DHT22;7062;49.792;9.946;2023-02-01T10:42:39;8.00;99.90
13976;DHT22;7062;49.792;9.946;2023-02-01T10:45:06;8.70;99.90
13976;DHT22;7062;49.792;9.946;2023-02-01T10:47:32;11.40;99.90
13976;DHT22;7062;49.792;9.946;2023-02-01T10:52:43;9.50;99.90
13976;DHT22;7062;49.792;9.946;2023-02-01T10:58:00;8.20;99.90
13976;DHT22;7062;49.792;9.946;2023-02-01T11:00:28;8.00;99.90
13976;DHT22;7062;49.792;9.946;2023-02-01T11:02:54;7.80;99.90
13976;DHT22;7062;49.792;9.946;2023-02-01T11:05:20;7.80;99.90
13976;DHT22;7062;49.792;9.946;2023-02-01T11:07:53;7.60;99.90
13976;DHT22;7062;49.792;9.946;2023-02-01T11:10:42;7.60;99.90
13976;DHT22;7062;49.792;9.946;2023-02-01T11:13:16;7.70;99.90
13976;DHT22;7062;49.792;9.946;2023-02-01T11:15:46;7.70;99.90
13976;DHT22;7062;49.792;9.946;2023-02-01T11:18:20;7.70;99.90
13976;DHT22;7062;49.792;9.946;2023-02-01T11:20:49;7.70;99.90
13976;DHT22;7062;49.792;9.946;2023-02-01T11:23:20;7.70;99.90
13976;DHT22;7062;49.792;9.946;2023-02-01T11:28:39;12.20;99.90
13976;DHT22;7062;49.792;9.946;2023-02-01T11:31:10;13.90;99.90
13976;DHT22;7062;49.792;9.946;2023-02-01T11:33:38;12.70;99.90
13976;DHT22;7062;49.792;9.946;2023-02-01T11:36:10;11.20;99.90
13976;DHT22;7062;49.792;9.946;2023-02-01T11:38:37;9.90;99.90
13976;DHT22;7062;49.792;9.946;2023-02-01T11:41:22;9.40;99.90
13976;DHT22;7062;49.792;9.946;2023-02-01T11:44:02;9.10;99.90
13976;DHT22;7062;49.792;9.946;2023-02-01T11:46:40;9.20;99.90
13976;DHT22;7062;49.792;9.946;2023-02-01T12:03:01;8.80;99.90
13976;DHT22;7062;49.792;9.946;2023-02-01T12:14:01;8.50;99.90
13976;DHT22;7062;49.792;9.946;2023-02-01T12:16:45;8.50;99.90
13976;DHT22;7062;49.792;9.946;2023-02-01T12:22:29;8.40;99.90
13976;DHT22;7062;49.792;9.946;2023-02-01T12:33:46;8.40;99.90
13976;DHT22;7062;49.792;9.946;2023-02-01T12:36:21;8.30;99.90
13976;DHT22;7062;49.792;9.946;2023-02-01T12:44:37;8.10;99.90
13976;DHT22;7062;49.792;9.946;2023-02-01T12:47:12;8.10;99.90
13976;DHT22;7062;49.792;9.946;2023-02-01T12:52:51;8.00;99.90
13976;DHT22;7062;49.792;9.946;2023-02-01T12:55:24;8.10;99.90
13976;DHT22;7062;49.792;9.946;2023-02-01T12:58:03;8.20;99.90
13976;DHT22;7062;49.792;9.946;2023-02-01T13:00:38;8.20;99.90
13976;DHT22;7062;49.792;9.946;2023-02-01T13:03:37;8.10;99.90
13976;DHT22;7062;49.792;9.946;2023-02-01T13:06:48;8.10;99.90
13976;DHT22;7062;49.792;9.946;2023-02-01T13:09:26;8.00;99.90
13976;DHT22;7062;49.792;9.946;2023-02-01T13:11:55;7.90;99.90
13976;DHT22;7062;49.792;9.946;2023-02-01T13:14:35;7.90;99.90
13976;DHT22;7062;49.792;9.946;2023-02-01T13:20:07;7.70;99.90
13976;DHT22;7062;49.792;9.946;2023-02-01T13:22:39;7.80;99.90
13976;DHT22;7062;49.792;9.946;2023-02-01T13:25:16;7.90;99.90
13976;DHT22;7062;49.792;9.946;2023-02-01T13:27:43;7.80;99.90
13976;DHT22;7062;49.792;9.946;2023-02-01T13:30:25;7.80;99.90
13976;DHT22;7062;49.792;9.946;2023-02-01T13:33:22;7.80;99.90
13976;DHT22;7062;49.792;9.946;2023-02-01T13:36:05;7.80;99.90
13976;DHT22;7062;49.792;9.946;2023-02-01T13:43:55;7.60;99.90
13976;DHT22;7062;49.792;9.946;2023-02-01T13:46:23;7.70;99.90
13976;DHT22;7062;49.792;9.946;2023-02-01T13:48:55;7.60;99.90
13976;DHT22;7062;49.792;9.946;2023-02-01T13:51:45;7.70;99.90
13976;DHT22;7062;49.792;9.946;2023-02-01T13:54:30;7.70;99.90
13976;DHT22;7062;49.792;9.946;2023-02-01T13:56:57;7.70;99.90
13976;DHT22;7062;49.792;9.946;2023-02-01T14:05:02;7.60;99.90
13976;DHT22;7062;49.792;9.946;2023-02-01T14:07:28;7.70;99.90
13976;DHT22;7062;49.792;9.946;2023-02-01T14:09:54;7.70;99.90
13976;DHT22;7062;49.792;9.946;2023-02-01T14:12:43;7.70;99.90
13976;DHT22;7062;49.792;9.946;2023-02-01T14:17:48;7.60;99.90
13976;DHT22;7062;49.792;9.946;2023-02-01T14:20:40;7.60;99.90
13976;DHT22;7062;49.792;9.946;2023-02-01T14:23:15;7.60;99.90
13976;DHT22;7062;49.792;9.946;2023-02-01T14:25:42;7.60;99.90
13976;DHT22;7062;49.792;9.946;2023-02-01T14:28:26;7.60;99.90
13976;DHT22;7062;49.792;9.946;2023-02-01T14:30:54;7.60;99.90
13976;DHT22;7062;49.792;9.946;2023-02-01T14:33:23;7.60;99.90
13976;DHT22;7062;49.792;9.946;2023-02-01T14:36:17;7.60;99.90
13976;DHT22;7062;49.792;9.946;2023-02-01T14:38:49;7.60;99.90
13976;DHT22;7062;49.792;9.946;2023-02-01T14:41:32;7.50;99.90
13976;DHT22;7062;49.792;9.946;2023-02-01T14:52:28;8.00;99.90
13976;DHT22;7062;49.792;9.946;2023-02-01T14:54:57;8.10;99.90
13976;DHT22;7062;49.792;9.946;2023-02-01T14:57:26;8.30;99.90
13976;DHT22;7062;49.792;9.946;2023-02-01T15:00:00;8.60;99.90
13976;DHT22;7062;49.792;9.946;2023-02-01T15:02:31;8.30;99.90
13976;DHT22;7062;49.792;9.946;2023-02-01T15:05:00;8.30;99.90
13976;DHT22;7062;49.792;9.946;2023-02-01T15:07:26;8.20;99.90
13976;DHT22;7062;49.792;9.946;2023-02-01T15:09:54;8.00;99.90
13976;DHT22;7062;49.792;9.946;2023-02-01T15:12:27;8.00;99.90
13976;DHT22;7062;49.792;9.946;2023-02-01T15:15:16;7.80;99.90
13976;DHT22;7062;49.792;9.946;2023-02-01T15:17:56;7.80;99.90
13976;DHT22;7062;49.792;9.946;2023-02-01T15:20:28;7.70;99.90
13976;DHT22;7062;49.792;9.946;2023-02-01T15:23:03;7.80;99.90
13976;DHT22;7062;49.792;9.946;2023-02-01T15:25:34;7.70;99.90
13976;DHT22;7062;49.792;9.946;2023-02-01T15:28:02;7.70;99.90
13976;DHT22;7062;49.792;9.946;2023-02-01T15:30:31;7.70;99.90
13976;DHT22;7062;49.792;9.946;2023-02-01T15:36:17;7.70;99.90
13976;DHT22;7062;49.792;9.946;2023-02-01T15:38:44;7.60;99.90
13976;DHT22;7062;49.792;9.946;2023-02-01T15:41:16;7.60;99.90
13976;DHT22;7062;49.792;9.946;2023-02-01T15:43:47;7.60;99.90
13976;DHT22;7062;49.792;9.946;2023-02-01T15:46:20;7.60;99.90
13976;DHT22;7062;49.792;9.946;2023-02-01T15:48:49;7.70;99.90
13976;DHT22;7062;49.792;9.946;2023-02-01T15:51:18;7.60;99.90
13976;DHT22;7062;49.792;9.946;2023-02-01T15:53:51;7.60;99.90
13976;DHT22;7062;49.792;9.946;2023-02-01T15:56:22;7.50;99.90
13976;DHT22;7062;49.792;9.946;2023-02-01T15:58:51;7.60;99.90
13976;DHT22;7062;49.792;9.946;2023-02-01T16:01:18;7.50;99.90
13976;DHT22;7062;49.792;9.946;2023-02-01T16:03:46;7.50;99.90
13976;DHT22;7062;49.792;9.946;2023-02-01T16:09:01;7.50;99.90
13976;DHT22;7062;49.792;9.946;2023-02-01T16:11:32;7.50;99.90
13976;DHT22;7062;49.792;9.946;2023-02-01T16:13:59;7.50;99.90
13976;DHT22;7062;49.792;9.946;2023-02-01T16:16:26;7.50;99.90
13976;DHT22;7062;49.792;9.946;2023-02-01T16:18:52;7.50;99.90
13976;DHT22;7062;49.792;9.946;2023-02-01T16:21:17;7.40;99.90
13976;DHT22;7062;49.792;9.946;2023-02-01T16:23:47;7.50;99.90
13976;DHT22;7062;49.792;9.946;2023-02-01T16:26:13;7.50;99.90
13976;DHT22;7062;49.792;9.946;2023-02-01T16:28:39;7.40;99.90
13976;DHT22;7062;49.792;9.946;2023-02-01T16:31:05;7.40;99.90
13976;DHT22;7062;49.792;9.946;2023-02-01T16:33:35;7.60;99.90
13976;DHT22;7062;49.792;9.946;2023-02-01T16:36:01;7.70;99.90
13976;DHT22;7062;49.792;9.946;2023-02-01T16:38:27;7.60;99.90
13976;DHT22;7062;49.792;9.946;2023-02-01T16:40:53;7.60;99.90
13976;DHT22;7062;49.792;9.946;2023-02-01T16:43:21;7.60;99.90
13976;DHT22;7062;49.792;9.946;2023-02-01T16:45:48;7.60;99.90
13976;DHT22;7062;49.792;9.946;2023-02-01T16:48:28;7.50;99.90
13976;DHT22;7062;49.792;9.946;2023-02-01T16:50:56;7.40;99.90
13976;DHT22;7062;49.792;9.946;2023-02-01T16:53:24;7.40;99.90
13976;DHT22;7062;49.792;9.946;2023-02-01T16:55:50;7.40;99.90
13976;DHT22;7062;49.792;9.946;2023-02-01T16:58:18;7.40;99.90
13976;DHT22;7062;49.792;9.946;2023-02-01T17:00:44;7.40;99.90
13976;DHT22;7062;49.792;9.946;2023-02-01T17:03:11;7.50;99.90
13976;DHT22;7062;49.792;9.946;2023-02-01T17:05:43;7.40;99.90
13976;DHT22;7062;49.792;9.946;2023-02-01T17:08:10;7.40;99.90
13976;DHT22;7062;49.792;9.946;2023-02-01T17:10:37;7.40;99.90
13976;DHT22;7062;49.792;9.946;2023-02-01T17:13:03;7.40;99.90
13976;DHT22;7062;49.792;9.946;2023-02-01T17:15:32;7.30;99.90
13976;DHT22;7062;49.792;9.946;2023-02-01T17:18:02;7.40;99.90
13976;DHT22;7062;49.792;9.946;2023-02-01T17:20:30;7.30;99.90
13976;DHT22;7062;49.792;9.946;2023-02-01T17:22:57;7.40;99.90
13976;DHT22;7062;49.792;9.946;2023-02-01T17:25:29;7.00;99.90
13976;DHT22;7062;49.792;9.946;2023-02-01T17:27:56;7.30;99.90
13976;DHT22;7062;49.792;9.946;2023-02-01T17:30:21;7.40;99.90
13976;DHT22;7062;49.792;9.946;2023-02-01T17:32:47;7.30;99.90
13976;DHT22;7062;49.792;9.946;2023-02-01T17:35:21;7.30;99.90
13976;DHT22;7062;49.792;9.946;2023-02-01T17:37:50;7.20;99.90
13976;DHT22;7062;49.792;9.946;2023-02-01T17:40:22;7.20;99.90
13976;DHT22;7062;49.792;9.946;2023-02-01T17:42:48;7.20;99.90
13976;DHT22;7062;49.792;9.946;2023-02-01T17:45:37;7.20;99.90
13976;DHT22;7062;49.792;9.946;2023-02-01T17:48:06;7.20;99.90
13976;DHT22;7062;49.792;9.946;2023-02-01T17:50:34;7.20;99.90
13976;DHT22;7062;49.792;9.946;2023-02-01T17:53:01;7.10;99.90
13976;DHT22;7062;49.792;9.946;2023-02-01T17:55:28;7.20;99.90
13976;DHT22;7062;49.792;9.946;2023-02-01T17:57:53;7.30;99.90
13976;DHT22;7062;49.792;9.946;2023-02-01T18:00:20;7.20;99.90
13976;DHT22;7062;49.792;9.946;2023-02-01T18:02:46;7.30;99.90
13976;DHT22;7062;49.792;9.946;2023-02-01T18:07:40;7.30;99.90
13976;DHT22;7062;49.792;9.946;2023-02-01T18:10:06;7.40;99.90
13976;DHT22;7062;49.792;9.946;2023-02-01T18:12:33;7.40;99.90
13976;DHT22;7062;49.792;9.946;2023-02-01T18:14:58;7.40;99.90
13976;DHT22;7062;49.792;9.946;2023-02-01T18:17:24;7.40;99.90
13976;DHT22;7062;49.792;9.946;2023-02-01T18:19:49;7.40;99.90
13976;DHT22;7062;49.792;9.946;2023-02-01T18:22:17;7.50;99.90
13976;DHT22;7062;49.792;9.946;2023-02-01T18:24:43;7.50;99.90
13976;DHT22;7062;49.792;9.946;2023-02-01T18:27:09;7.40;99.90
13976;DHT22;7062;49.792;9.946;2023-02-01T18:29:34;7.50;99.90
13976;DHT22;7062;49.792;9.946;2023-02-01T18:32:01;7.50;99.90
13976;DHT22;7062;49.792;9.946;2023-02-01T18:34:27;7.50;99.90
13976;DHT22;7062;49.792;9.946;2023-02-01T18:36:54;7.50;99.90
13976;DHT22;7062;49.792;9.946;2023-02-01T18:39:20;7.50;99.90